In Rescue
 
Open Full Screen Window  High Contrast Mode
Wind Gusting 00 knots
05
November 27, 2020 11:16 PM EST
Weather Information
Wind Direction
  260 °
Wind Speed
  05 kt (6 mph)
Wind Gust
  00 kt (0 mph)
Altimeter
29.96 in
Visibility
10 SM
Temperature
02° C
36° F
Dewpoint
-02° C
28° F
Humidity
75%
Sky Condition
Overcast @ 5,000 ft
Broken @ 4,700 ft
Scattered @ 3,400 ft
VFR

METAR KSLH 280416Z AUTO 26005KT 10SM SCT034 BKN047 OVC050 02/M02 A2996 RMK AO2

FAA Disclaimer: The data displayed is for advisory purposes only and is not to be used for flight planning or operations.